createdAt,value
2023-01-11T00:09:57.953Z,6.50
2023-01-11T00:20:01.566Z,6.61
2023-01-11T00:30:05.725Z,6.57
2023-01-11T00:40:10.121Z,6.64
2023-01-11T00:50:13.662Z,6.75
2023-01-11T01:00:19.122Z,6.69
2023-01-11T01:10:22.801Z,6.79
2023-01-11T01:20:26.727Z,6.88
2023-01-11T01:30:30.390Z,6.92
2023-01-11T01:40:43.526Z,6.92
2023-01-11T01:50:55.963Z,6.97
2023-01-11T02:01:21.524Z,6.92
2023-01-11T02:11:32.519Z,6.90
2023-01-11T02:22:25.308Z,6.78
2023-01-11T02:32:53.150Z,6.77
2023-01-11T02:43:44.703Z,6.77
2023-01-11T02:54:02.756Z,6.60
2023-01-11T03:04:06.290Z,6.55
2023-01-11T03:14:40.684Z,6.69
2023-01-11T03:24:55.918Z,6.69
2023-01-11T03:35:11.380Z,6.76
2023-01-11T03:45:15.299Z,6.76
2023-01-11T03:55:19.066Z,6.72
2023-01-11T04:05:22.854Z,6.65
2023-01-11T04:15:26.406Z,6.64
2023-01-11T04:25:30.049Z,6.62
2023-01-11T04:35:33.608Z,6.64
2023-01-11T04:45:40.444Z,6.74
2023-01-11T04:55:44.119Z,6.83
2023-01-11T05:05:59.082Z,6.93
2023-01-11T05:16:02.570Z,6.89
2023-01-11T05:26:08.901Z,6.84
2023-01-11T05:36:17.376Z,6.77
2023-01-11T05:46:22.489Z,6.73
2023-01-11T05:56:26.982Z,6.68
2023-01-11T06:06:32.967Z,6.59
2023-01-11T06:16:36.673Z,6.46
2023-01-11T06:26:40.339Z,6.43
2023-01-11T06:36:43.966Z,6.24
2023-01-11T06:46:49.159Z,6.29
2023-01-11T06:56:52.875Z,6.07
2023-01-11T07:06:56.581Z,6.09
2023-01-11T07:17:00.315Z,6.10
2023-01-11T07:27:04.028Z,6.09
2023-01-11T07:37:29.120Z,6.02
2023-01-11T07:47:33.129Z,6.01
2023-01-11T07:57:36.708Z,5.96
2023-01-11T08:07:42.410Z,5.97
2023-01-11T08:17:46.867Z,6.05
2023-01-11T08:27:50.449Z,6.10
2023-01-11T08:37:54.041Z,6.14
2023-01-11T08:47:59.823Z,6.31
2023-01-11T08:58:03.404Z,6.44
2023-01-11T09:08:09.091Z,6.52
2023-01-11T09:18:13.454Z,6.62
2023-01-11T09:28:17.593Z,6.79
2023-01-11T09:38:21.269Z,7.10
2023-01-11T09:48:44.169Z,7.24
2023-01-11T09:58:51.383Z,7.26
2023-01-11T10:19:40.709Z,7.37
2023-01-11T10:29:58.009Z,7.46
2023-01-11T10:40:30.616Z,7.52
2023-01-11T10:50:48.525Z,7.74
2023-01-11T11:01:39.927Z,7.75
2023-01-11T11:12:03.806Z,7.98
2023-01-11T11:22:12.620Z,8.18
2023-01-11T11:32:27.150Z,8.09
2023-01-11T11:42:30.848Z,8.16
2023-01-11T11:52:35.059Z,8.20
2023-01-11T12:02:50.211Z,8.17
2023-01-11T12:13:03.510Z,8.16
2023-01-11T12:23:28.349Z,8.06
2023-01-11T12:33:31.855Z,7.96
2023-01-11T12:43:43.387Z,7.95
2023-01-11T12:53:52.986Z,7.88
2023-01-11T13:04:02.415Z,7.86
2023-01-11T13:14:37.181Z,7.67
2023-01-11T13:24:45.456Z,7.35
2023-01-11T13:34:55.943Z,7.34
2023-01-11T13:45:25.345Z,7.27
2023-01-11T13:56:08.279Z,7.06
2023-01-11T14:06:53.638Z,6.81
2023-01-11T14:17:09.469Z,6.62
2023-01-11T14:27:36.960Z,6.44
2023-01-11T14:38:19.167Z,6.44
2023-01-11T14:49:44.302Z,6.19
2023-01-11T14:59:48.242Z,6.10
2023-01-11T15:09:53.956Z,6.08
2023-01-11T15:20:07.804Z,6.10
2023-01-11T15:30:30.066Z,6.10
2023-01-11T15:40:40.365Z,6.14
2023-01-11T15:51:10.951Z,6.07
2023-01-11T16:01:24.934Z,5.97
2023-01-11T16:12:06.633Z,5.91
2023-01-11T16:22:22.699Z,5.83
2023-01-11T16:32:34.713Z,5.73
2023-01-11T16:42:44.387Z,5.61
2023-01-11T16:53:12.629Z,5.65
2023-01-11T17:03:22.804Z,5.65
2023-01-11T17:25:44.822Z,5.63
2023-01-11T17:35:49.003Z,5.61
2023-01-11T17:46:00.301Z,5.50
2023-01-11T17:56:27.669Z,5.58
2023-01-11T18:06:45.460Z,5.54
2023-01-11T18:16:57.026Z,5.54
2023-01-11T19:05:59.828Z,5.38
2023-01-11T19:16:03.480Z,5.49
2023-01-11T19:26:07.261Z,5.65
2023-01-11T19:36:11.633Z,5.66
2023-01-11T19:46:30.789Z,5.81
2023-01-11T19:56:35.218Z,5.93
2023-01-11T20:06:42.017Z,5.96
2023-01-11T20:16:46.300Z,6.02
2023-01-11T20:26:50.033Z,6.05
2023-01-11T20:36:56.875Z,6.14
2023-01-11T20:47:01.402Z,6.14
2023-01-11T20:57:08.523Z,6.20
2023-01-11T21:07:12.329Z,6.19
2023-01-11T21:17:16.720Z,6.23
2023-01-11T21:27:20.323Z,6.35
2023-01-11T21:37:24.906Z,6.38
2023-01-11T21:47:28.569Z,6.27
2023-01-11T21:57:32.061Z,6.30
2023-01-11T22:07:38.448Z,6.27
2023-01-11T22:17:42.255Z,6.28
2023-01-11T22:27:45.936Z,6.34
2023-01-11T22:37:49.456Z,6.34
2023-01-11T22:47:53.040Z,6.33
2023-01-11T22:57:56.913Z,6.37
2023-01-11T23:08:00.546Z,6.50
2023-01-11T23:18:05.333Z,6.48
2023-01-11T23:28:08.867Z,6.45
2023-01-11T23:38:12.805Z,6.48
